Plymouth, Mississippi
Current Conditions -  °F | °C
As of 1:53 AM on Monday 22 Dec 2014 (Local Time) from KTUP Reporting Station
Overcast Overcast  
Wind Chill: 47°   Ceiling: 1500
Heat Index: 49°   Visibility: 8mi
Dew Point: 45°   Wind: 6mph
Humidity: 86%   Direction: 180°S
Pressure: 29.93"   Gusts: NA
Location:  34.1762°N, 88.9612°W
Report Text: KTUP 220753Z AUTO 18005KT 8SM SCT008 OVC015 09/07 A2993 RMK AO2 SLP135 T00940072
Loading
Personal Weather Stations






























Interactive Weather Map New forecast layout! Learn more

10-Day Weather Forecast

Advertisements
Track Severe Weather on mobile